sensor_id;sensor_type;location;lat;lon;timestamp;pressure;altitude;pressure_sealevel;temperature;humidity
27429;BME280;14881;48.092;11.574;2024-03-08T00:00:15;95377.38;;;-1.62;100.00
27429;BME280;14881;48.092;11.574;2024-03-08T00:02:47;95366.56;;;-1.67;100.00
27429;BME280;14881;48.092;11.574;2024-03-08T00:05:17;95375.34;;;-1.67;100.00
27429;BME280;14881;48.092;11.574;2024-03-08T00:07:45;95370.69;;;-1.71;100.00
27429;BME280;14881;48.092;11.574;2024-03-08T00:10:13;95372.38;;;-1.77;100.00
27429;BME280;14881;48.092;11.574;2024-03-08T00:12:43;95363.19;;;-1.81;100.00
27429;BME280;14881;48.092;11.574;2024-03-08T00:15:14;95374.84;;;-1.82;100.00
27429;BME280;14881;48.092;11.574;2024-03-08T00:17:44;95373.63;;;-1.80;100.00
27429;BME280;14881;48.092;11.574;2024-03-08T00:20:13;95373.56;;;-1.73;100.00
27429;BME280;14881;48.092;11.574;2024-03-08T00:22:41;95365.81;;;-1.74;100.00
27429;BME280;14881;48.092;11.574;2024-03-08T00:25:10;95366.13;;;-1.64;100.00
27429;BME280;14881;48.092;11.574;2024-03-08T00:27:38;95363.63;;;-1.59;100.00
27429;BME280;14881;48.092;11.574;2024-03-08T00:30:06;95356.34;;;-1.46;100.00
27429;BME280;14881;48.092;11.574;2024-03-08T00:32:36;95350.97;;;-1.39;100.00
27429;BME280;14881;48.092;11.574;2024-03-08T00:35:05;95348.44;;;-1.34;100.00
27429;BME280;14881;48.092;11.574;2024-03-08T00:37:34;95348.00;;;-1.31;100.00
27429;BME280;14881;48.092;11.574;2024-03-08T00:40:02;95343.28;;;-1.29;100.00
27429;BME280;14881;48.092;11.574;2024-03-08T00:42:31;95342.41;;;-1.23;100.00
27429;BME280;14881;48.092;11.574;2024-03-08T00:45:00;95343.66;;;-1.25;100.00
27429;BME280;14881;48.092;11.574;2024-03-08T00:47:27;95335.78;;;-1.20;100.00
27429;BME280;14881;48.092;11.574;2024-03-08T00:49:57;95333.38;;;-1.22;100.00
27429;BME280;14881;48.092;11.574;2024-03-08T00:52:25;95328.63;;;-1.20;100.00
27429;BME280;14881;48.092;11.574;2024-03-08T00:54:52;95324.91;;;-1.19;100.00
27429;BME280;14881;48.092;11.574;2024-03-08T00:57:21;95323.53;;;-1.21;100.00
27429;BME280;14881;48.092;11.574;2024-03-08T00:59:49;95326.19;;;-1.21;100.00
27429;BME280;14881;48.092;11.574;2024-03-08T01:02:17;95317.16;;;-1.20;100.00
27429;BME280;14881;48.092;11.574;2024-03-08T01:04:45;95324.09;;;-1.19;100.00
27429;BME280;14881;48.092;11.574;2024-03-08T01:07:15;95320.28;;;-1.23;100.00
27429;BME280;14881;48.092;11.574;2024-03-08T01:09:43;95325.44;;;-1.28;100.00
27429;BME280;14881;48.092;11.574;2024-03-08T01:12:11;95312.13;;;-1.28;100.00
27429;BME280;14881;48.092;11.574;2024-03-08T01:14:39;95316.03;;;-1.31;100.00
27429;BME280;14881;48.092;11.574;2024-03-08T01:17:07;95312.78;;;-1.33;100.00
27429;BME280;14881;48.092;11.574;2024-03-08T01:19:36;95309.06;;;-1.32;100.00
27429;BME280;14881;48.092;11.574;2024-03-08T01:22:04;95296.56;;;-1.31;100.00
27429;BME280;14881;48.092;11.574;2024-03-08T01:24:33;95293.84;;;-1.25;100.00
27429;BME280;14881;48.092;11.574;2024-03-08T01:27:01;95292.22;;;-1.26;100.00
27429;BME280;14881;48.092;11.574;2024-03-08T01:29:29;95287.69;;;-1.25;100.00
27429;BME280;14881;48.092;11.574;2024-03-08T01:31:57;95278.25;;;-1.21;100.00
27429;BME280;14881;48.092;11.574;2024-03-08T01:34:28;95268.03;;;-1.24;100.00
27429;BME280;14881;48.092;11.574;2024-03-08T01:36:56;95273.13;;;-1.23;100.00
27429;BME280;14881;48.092;11.574;2024-03-08T01:39:25;95269.44;;;-1.22;100.00
27429;BME280;14881;48.092;11.574;2024-03-08T01:41:54;95268.16;;;-1.19;100.00
27429;BME280;14881;48.092;11.574;2024-03-08T01:44:22;95265.47;;;-1.19;100.00
27429;BME280;14881;48.092;11.574;2024-03-08T01:46:51;95260.69;;;-1.29;100.00
27429;BME280;14881;48.092;11.574;2024-03-08T01:49:21;95265.63;;;-1.32;100.00
27429;BME280;14881;48.092;11.574;2024-03-08T01:51:50;95265.47;;;-1.37;100.00
27429;BME280;14881;48.092;11.574;2024-03-08T01:54:19;95257.25;;;-1.36;100.00
27429;BME280;14881;48.092;11.574;2024-03-08T01:56:50;95261.19;;;-1.38;100.00
27429;BME280;14881;48.092;11.574;2024-03-08T01:59:21;95253.78;;;-1.36;100.00
27429;BME280;14881;48.092;11.574;2024-03-08T02:01:50;95243.34;;;-1.38;100.00
27429;BME280;14881;48.092;11.574;2024-03-08T02:04:18;95242.69;;;-1.33;100.00
27429;BME280;14881;48.092;11.574;2024-03-08T02:06:47;95241.16;;;-1.41;100.00
27429;BME280;14881;48.092;11.574;2024-03-08T02:09:15;95239.44;;;-1.35;100.00
27429;BME280;14881;48.092;11.574;2024-03-08T02:11:44;95238.50;;;-1.41;100.00
27429;BME280;14881;48.092;11.574;2024-03-08T02:14:12;95236.25;;;-1.44;100.00
27429;BME280;14881;48.092;11.574;2024-03-08T02:16:42;95230.72;;;-1.43;100.00
27429;BME280;14881;48.092;11.574;2024-03-08T02:19:09;95233.22;;;-1.48;100.00
27429;BME280;14881;48.092;11.574;2024-03-08T02:21:39;95232.63;;;-1.50;100.00
27429;BME280;14881;48.092;11.574;2024-03-08T02:24:07;95231.00;;;-1.51;100.00
27429;BME280;14881;48.092;11.574;2024-03-08T02:26:35;95225.84;;;-1.46;100.00
27429;BME280;14881;48.092;11.574;2024-03-08T02:29:04;95222.56;;;-1.48;100.00
27429;BME280;14881;48.092;11.574;2024-03-08T02:31:31;95216.00;;;-1.45;100.00
27429;BME280;14881;48.092;11.574;2024-03-08T02:33:59;95228.94;;;-1.49;100.00
27429;BME280;14881;48.092;11.574;2024-03-08T02:36:27;95216.88;;;-1.51;100.00
27429;BME280;14881;48.092;11.574;2024-03-08T02:38:56;95222.41;;;-1.53;100.00
27429;BME280;14881;48.092;11.574;2024-03-08T02:41:24;95229.38;;;-1.52;100.00
27429;BME280;14881;48.092;11.574;2024-03-08T02:43:52;95221.47;;;-1.58;100.00
27429;BME280;14881;48.092;11.574;2024-03-08T02:46:21;95218.06;;;-1.65;100.00
27429;BME280;14881;48.092;11.574;2024-03-08T02:48:49;95217.66;;;-1.69;100.00
27429;BME280;14881;48.092;11.574;2024-03-08T02:51:17;95216.25;;;-1.71;100.00
27429;BME280;14881;48.092;11.574;2024-03-08T02:53:47;95213.59;;;-1.71;100.00
27429;BME280;14881;48.092;11.574;2024-03-08T02:56:19;95215.22;;;-1.70;100.00
27429;BME280;14881;48.092;11.574;2024-03-08T02:58:52;95213.75;;;-1.66;100.00
27429;BME280;14881;48.092;11.574;2024-03-08T03:01:22;95211.75;;;-1.71;100.00
27429;BME280;14881;48.092;11.574;2024-03-08T03:03:50;95207.69;;;-1.73;100.00
27429;BME280;14881;48.092;11.574;2024-03-08T03:06:18;95202.00;;;-1.77;100.00
27429;BME280;14881;48.092;11.574;2024-03-08T03:08:47;95199.34;;;-1.77;100.00
27429;BME280;14881;48.092;11.574;2024-03-08T03:11:17;95197.50;;;-1.77;100.00
27429;BME280;14881;48.092;11.574;2024-03-08T03:13:47;95201.19;;;-1.78;100.00
27429;BME280;14881;48.092;11.574;2024-03-08T03:16:17;95195.47;;;-1.81;100.00
27429;BME280;14881;48.092;11.574;2024-03-08T03:18:46;95195.25;;;-1.80;100.00
27429;BME280;14881;48.092;11.574;2024-03-08T03:21:15;95198.09;;;-1.74;100.00
27429;BME280;14881;48.092;11.574;2024-03-08T03:23:44;95191.78;;;-1.80;100.00
27429;BME280;14881;48.092;11.574;2024-03-08T03:26:11;95197.53;;;-1.83;100.00
27429;BME280;14881;48.092;11.574;2024-03-08T03:28:39;95195.75;;;-1.89;100.00
27429;BME280;14881;48.092;11.574;2024-03-08T03:31:08;95200.13;;;-1.95;100.00
27429;BME280;14881;48.092;11.574;2024-03-08T03:33:40;95202.41;;;-1.98;100.00
27429;BME280;14881;48.092;11.574;2024-03-08T03:36:08;95195.66;;;-2.01;100.00
27429;BME280;14881;48.092;11.574;2024-03-08T03:38:37;95196.09;;;-2.04;100.00
27429;BME280;14881;48.092;11.574;2024-03-08T03:41:05;95202.66;;;-2.06;100.00
27429;BME280;14881;48.092;11.574;2024-03-08T03:43:37;95192.94;;;-2.13;100.00
27429;BME280;14881;48.092;11.574;2024-03-08T03:46:06;95189.22;;;-2.12;100.00
27429;BME280;14881;48.092;11.574;2024-03-08T03:48:36;95187.00;;;-2.15;100.00
27429;BME280;14881;48.092;11.574;2024-03-08T03:51:04;95188.25;;;-2.17;100.00
27429;BME280;14881;48.092;11.574;2024-03-08T03:53:32;95185.16;;;-2.14;100.00
27429;BME280;14881;48.092;11.574;2024-03-08T03:55:59;95190.41;;;-2.07;100.00
27429;BME280;14881;48.092;11.574;2024-03-08T03:58:27;95188.56;;;-2.07;100.00
27429;BME280;14881;48.092;11.574;2024-03-08T04:01:00;95182.19;;;-2.06;100.00
27429;BME280;14881;48.092;11.574;2024-03-08T04:03:27;95173.78;;;-2.03;100.00
27429;BME280;14881;48.092;11.574;2024-03-08T04:05:57;95180.94;;;-2.03;100.00
27429;BME280;14881;48.092;11.574;2024-03-08T04:08:24;95182.00;;;-2.04;100.00
27429;BME280;14881;48.092;11.574;2024-03-08T04:10:52;95171.72;;;-2.01;100.00
27429;BME280;14881;48.092;11.574;2024-03-08T04:13:20;95174.59;;;-2.02;100.00
27429;BME280;14881;48.092;11.574;2024-03-08T04:15:48;95174.75;;;-1.97;100.00
27429;BME280;14881;48.092;11.574;2024-03-08T04:18:16;95169.81;;;-1.94;100.00
27429;BME280;14881;48.092;11.574;2024-03-08T04:20:45;95165.91;;;-1.91;100.00
27429;BME280;14881;48.092;11.574;2024-03-08T04:23:14;95163.91;;;-1.96;100.00
27429;BME280;14881;48.092;11.574;2024-03-08T04:25:44;95168.63;;;-1.98;100.00
27429;BME280;14881;48.092;11.574;2024-03-08T04:28:11;95176.81;;;-1.99;100.00
27429;BME280;14881;48.092;11.574;2024-03-08T04:30:39;95172.53;;;-2.00;100.00
27429;BME280;14881;48.092;11.574;2024-03-08T04:33:07;95163.97;;;-2.02;100.00
27429;BME280;14881;48.092;11.574;2024-03-08T04:35:36;95162.06;;;-1.95;100.00
27429;BME280;14881;48.092;11.574;2024-03-08T04:38:04;95167.44;;;-2.02;100.00
27429;BME280;14881;48.092;11.574;2024-03-08T04:40:34;95165.38;;;-2.00;100.00
27429;BME280;14881;48.092;11.574;2024-03-08T04:43:02;95160.03;;;-2.00;100.00
27429;BME280;14881;48.092;11.574;2024-03-08T04:45:30;95166.78;;;-1.97;100.00
27429;BME280;14881;48.092;11.574;2024-03-08T04:47:58;95158.34;;;-1.94;100.00
27429;BME280;14881;48.092;11.574;2024-03-08T04:50:28;95165.75;;;-1.96;100.00
27429;BME280;14881;48.092;11.574;2024-03-08T04:52:56;95164.34;;;-1.99;100.00
27429;BME280;14881;48.092;11.574;2024-03-08T04:55:24;95161.69;;;-1.99;100.00
27429;BME280;14881;48.092;11.574;2024-03-08T04:57:53;95159.59;;;-1.97;100.00
27429;BME280;14881;48.092;11.574;2024-03-08T05:00:21;95157.31;;;-1.93;100.00
27429;BME280;14881;48.092;11.574;2024-03-08T05:02:49;95165.31;;;-1.93;100.00
27429;BME280;14881;48.092;11.574;2024-03-08T05:05:20;95156.66;;;-1.89;100.00
27429;BME280;14881;48.092;11.574;2024-03-08T05:07:49;95161.25;;;-1.96;100.00
27429;BME280;14881;48.092;11.574;2024-03-08T05:10:17;95157.13;;;-1.92;100.00
27429;BME280;14881;48.092;11.574;2024-03-08T05:12:45;95152.81;;;-1.93;100.00
27429;BME280;14881;48.092;11.574;2024-03-08T05:15:14;95153.41;;;-1.91;100.00
27429;BME280;14881;48.092;11.574;2024-03-08T05:17:42;95158.34;;;-1.94;100.00
27429;BME280;14881;48.092;11.574;2024-03-08T05:20:11;95149.13;;;-1.92;100.00
27429;BME280;14881;48.092;11.574;2024-03-08T05:22:40;95152.00;;;-1.93;100.00
27429;BME280;14881;48.092;11.574;2024-03-08T05:25:08;95146.00;;;-1.89;100.00
27429;BME280;14881;48.092;11.574;2024-03-08T05:27:37;95146.16;;;-1.84;100.00
27429;BME280;14881;48.092;11.574;2024-03-08T05:30:05;95151.41;;;-1.77;100.00
27429;BME280;14881;48.092;11.574;2024-03-08T05:32:35;95145.88;;;-1.76;100.00
27429;BME280;14881;48.092;11.574;2024-03-08T05:35:01;95146.59;;;-1.68;100.00
27429;BME280;14881;48.092;11.574;2024-03-08T05:37:33;95143.06;;;-1.62;100.00
27429;BME280;14881;48.092;11.574;2024-03-08T05:40:01;95138.22;;;-1.54;100.00
27429;BME280;14881;48.092;11.574;2024-03-08T05:42:29;95138.00;;;-1.52;100.00
27429;BME280;14881;48.092;11.574;2024-03-08T05:44:57;95142.44;;;-1.46;100.00
27429;BME280;14881;48.092;11.574;2024-03-08T05:47:26;95141.69;;;-1.35;100.00
27429;BME280;14881;48.092;11.574;2024-03-08T05:49:58;95140.06;;;-1.36;100.00
27429;BME280;14881;48.092;11.574;2024-03-08T05:52:26;95138.13;;;-1.29;100.00
27429;BME280;14881;48.092;11.574;2024-03-08T05:54:53;95132.34;;;-1.26;100.00
27429;BME280;14881;48.092;11.574;2024-03-08T05:57:21;95139.69;;;-1.21;100.00
27429;BME280;14881;48.092;11.574;2024-03-08T05:59:49;95139.81;;;-1.16;100.00
27429;BME280;14881;48.092;11.574;2024-03-08T06:02:17;95140.75;;;-1.11;100.00
27429;BME280;14881;48.092;11.574;2024-03-08T06:04:46;95134.66;;;-0.99;100.00
27429;BME280;14881;48.092;11.574;2024-03-08T06:07:15;95136.06;;;-0.97;100.00
27429;BME280;14881;48.092;11.574;2024-03-08T06:09:44;95130.88;;;-0.92;100.00
27429;BME280;14881;48.092;11.574;2024-03-08T06:12:13;95132.72;;;-0.81;100.00
27429;BME280;14881;48.092;11.574;2024-03-08T06:14:45;95131.47;;;-0.78;100.00
27429;BME280;14881;48.092;11.574;2024-03-08T06:17:13;95128.94;;;-0.73;100.00
27429;BME280;14881;48.092;11.574;2024-03-08T06:19:40;95128.72;;;-0.72;100.00
27429;BME280;14881;48.092;11.574;2024-03-08T06:22:08;95121.63;;;-0.66;100.00
27429;BME280;14881;48.092;11.574;2024-03-08T06:24:38;95125.03;;;-0.59;100.00
27429;BME280;14881;48.092;11.574;2024-03-08T06:27:06;95130.38;;;-0.47;100.00
27429;BME280;14881;48.092;11.574;2024-03-08T06:29:37;95130.94;;;-0.45;100.00
27429;BME280;14881;48.092;11.574;2024-03-08T06:32:06;95133.75;;;-0.40;100.00
27429;BME280;14881;48.092;11.574;2024-03-08T06:34:34;95130.63;;;-0.37;100.00
27429;BME280;14881;48.092;11.574;2024-03-08T06:37:02;95131.66;;;-0.26;100.00
27429;BME280;14881;48.092;11.574;2024-03-08T06:39:29;95131.91;;;-0.28;100.00
27429;BME280;14881;48.092;11.574;2024-03-08T06:41:59;95132.84;;;-0.22;100.00
27429;BME280;14881;48.092;11.574;2024-03-08T06:44:27;95134.00;;;-0.18;100.00
27429;BME280;14881;48.092;11.574;2024-03-08T06:46:55;95125.28;;;-0.02;100.00
27429;BME280;14881;48.092;11.574;2024-03-08T06:49:26;95131.44;;;-0.02;100.00
27429;BME280;14881;48.092;11.574;2024-03-08T06:51:55;95137.09;;;0.02;100.00
27429;BME280;14881;48.092;11.574;2024-03-08T06:54:23;95140.34;;;0.04;100.00
27429;BME280;14881;48.092;11.574;2024-03-08T06:56:51;95128.75;;;0.10;100.00
27429;BME280;14881;48.092;11.574;2024-03-08T06:59:20;95130.59;;;0.21;100.00
27429;BME280;14881;48.092;11.574;2024-03-08T07:01:48;95126.06;;;0.22;100.00
27429;BME280;14881;48.092;11.574;2024-03-08T07:04:16;95129.09;;;0.25;100.00
27429;BME280;14881;48.092;11.574;2024-03-08T07:06:46;95126.63;;;0.35;100.00
27429;BME280;14881;48.092;11.574;2024-03-08T07:09:16;95122.59;;;0.33;100.00
27429;BME280;14881;48.092;11.574;2024-03-08T07:11:44;95122.44;;;0.40;100.00
27429;BME280;14881;48.092;11.574;2024-03-08T07:14:13;95124.75;;;0.48;100.00
27429;BME280;14881;48.092;11.574;2024-03-08T07:16:43;95117.31;;;0.50;100.00
27429;BME280;14881;48.092;11.574;2024-03-08T07:19:11;95114.88;;;0.48;100.00
27429;BME280;14881;48.092;11.574;2024-03-08T07:21:39;95119.59;;;0.58;100.00
27429;BME280;14881;48.092;11.574;2024-03-08T07:24:07;95124.34;;;0.67;100.00
27429;BME280;14881;48.092;11.574;2024-03-08T07:26:51;95120.94;;;0.72;100.00
27429;BME280;14881;48.092;11.574;2024-03-08T07:29:19;95102.56;;;0.76;100.00
27429;BME280;14881;48.092;11.574;2024-03-08T07:31:48;95109.91;;;0.80;100.00
27429;BME280;14881;48.092;11.574;2024-03-08T07:34:24;95102.28;;;0.89;100.00
27429;BME280;14881;48.092;11.574;2024-03-08T07:36:52;95103.09;;;0.89;100.00
27429;BME280;14881;48.092;11.574;2024-03-08T07:39:20;95094.59;;;0.92;100.00
27429;BME280;14881;48.092;11.574;2024-03-08T07:41:50;95100.88;;;0.98;100.00
27429;BME280;14881;48.092;11.574;2024-03-08T07:44:19;95103.88;;;1.01;100.00
27429;BME280;14881;48.092;11.574;2024-03-08T07:46:48;95101.78;;;1.03;100.00
27429;BME280;14881;48.092;11.574;2024-03-08T07:49:17;95094.31;;;1.05;100.00
27429;BME280;14881;48.092;11.574;2024-03-08T07:51:45;95085.66;;;1.15;100.00
27429;BME280;14881;48.092;11.574;2024-03-08T07:54:13;95081.38;;;1.14;100.00
27429;BME280;14881;48.092;11.574;2024-03-08T07:56:41;95085.00;;;1.25;100.00
27429;BME280;14881;48.092;11.574;2024-03-08T07:59:09;95079.19;;;1.28;100.00
27429;BME280;14881;48.092;11.574;2024-03-08T08:01:38;95086.66;;;1.43;100.00
27429;BME280;14881;48.092;11.574;2024-03-08T08:04:07;95068.81;;;1.65;100.00
27429;BME280;14881;48.092;11.574;2024-03-08T08:06:38;95079.66;;;1.75;100.00
27429;BME280;14881;48.092;11.574;2024-03-08T08:09:07;95075.97;;;1.98;100.00
27429;BME280;14881;48.092;11.574;2024-03-08T08:11:40;95071.53;;;2.03;100.00
27429;BME280;14881;48.092;11.574;2024-03-08T08:14:10;95066.78;;;2.10;100.00
27429;BME280;14881;48.092;11.574;2024-03-08T08:16:38;95072.28;;;2.21;100.00
27429;BME280;14881;48.092;11.574;2024-03-08T08:19:09;95056.97;;;2.38;100.00
27429;BME280;14881;48.092;11.574;2024-03-08T08:21:40;95066.31;;;2.35;100.00
27429;BME280;14881;48.092;11.574;2024-03-08T08:24:08;95059.44;;;2.44;100.00
27429;BME280;14881;48.092;11.574;2024-03-08T08:26:37;95061.94;;;2.51;100.00
27429;BME280;14881;48.092;11.574;2024-03-08T08:29:06;95059.00;;;2.53;100.00
27429;BME280;14881;48.092;11.574;2024-03-08T08:31:34;95057.81;;;2.65;100.00
27429;BME280;14881;48.092;11.574;2024-03-08T08:34:02;95052.25;;;2.72;100.00
27429;BME280;14881;48.092;11.574;2024-03-08T08:36:31;95044.13;;;2.89;100.00
27429;BME280;14881;48.092;11.574;2024-03-08T08:38:59;95039.00;;;3.14;100.00
27429;BME280;14881;48.092;11.574;2024-03-08T08:41:28;95028.19;;;3.36;100.00
27429;BME280;14881;48.092;11.574;2024-03-08T08:43:58;95029.84;;;3.42;100.00
27429;BME280;14881;48.092;11.574;2024-03-08T08:46:41;95028.00;;;3.47;100.00
27429;BME280;14881;48.092;11.574;2024-03-08T08:49:09;95025.31;;;3.84;100.00
27429;BME280;14881;48.092;11.574;2024-03-08T08:51:39;95026.13;;;4.32;100.00
27429;BME280;14881;48.092;11.574;2024-03-08T08:54:06;95018.91;;;4.53;100.00
27429;BME280;14881;48.092;11.574;2024-03-08T08:56:38;95014.94;;;4.66;100.00
27429;BME280;14881;48.092;11.574;2024-03-08T08:59:06;95014.38;;;4.59;100.00
27429;BME280;14881;48.092;11.574;2024-03-08T09:01:34;95014.94;;;4.71;100.00
27429;BME280;14881;48.092;11.574;2024-03-08T09:04:04;95010.63;;;4.70;100.00
27429;BME280;14881;48.092;11.574;2024-03-08T09:06:34;95011.16;;;4.62;100.00
27429;BME280;14881;48.092;11.574;2024-03-08T09:09:03;95003.06;;;4.57;100.00
27429;BME280;14881;48.092;11.574;2024-03-08T09:11:32;95001.72;;;4.54;100.00
27429;BME280;14881;48.092;11.574;2024-03-08T09:14:00;95000.69;;;4.65;100.00
27429;BME280;14881;48.092;11.574;2024-03-08T09:16:28;94995.53;;;4.53;100.00
27429;BME280;14881;48.092;11.574;2024-03-08T09:18:57;94997.41;;;4.53;100.00
27429;BME280;14881;48.092;11.574;2024-03-08T09:21:26;94985.34;;;4.61;100.00
27429;BME280;14881;48.092;11.574;2024-03-08T09:23:53;94983.75;;;4.65;100.00
27429;BME280;14881;48.092;11.574;2024-03-08T09:26:23;94979.47;;;4.89;100.00
27429;BME280;14881;48.092;11.574;2024-03-08T09:28:55;94978.66;;;4.78;100.00
27429;BME280;14881;48.092;11.574;2024-03-08T09:31:23;94976.22;;;4.77;100.00
27429;BME280;14881;48.092;11.574;2024-03-08T09:33:51;94977.59;;;4.95;100.00
27429;BME280;14881;48.092;11.574;2024-03-08T09:36:19;94975.72;;;5.10;100.00
27429;BME280;14881;48.092;11.574;2024-03-08T09:38:47;94964.97;;;5.31;100.00
27429;BME280;14881;48.092;11.574;2024-03-08T09:41:16;94959.84;;;5.39;100.00
27429;BME280;14881;48.092;11.574;2024-03-08T09:43:47;94951.47;;;5.61;100.00
27429;BME280;14881;48.092;11.574;2024-03-08T09:46:18;94948.47;;;5.73;100.00
27429;BME280;14881;48.092;11.574;2024-03-08T09:48:46;94950.09;;;5.84;100.00
27429;BME280;14881;48.092;11.574;2024-03-08T09:51:14;94944.69;;;5.89;100.00
27429;BME280;14881;48.092;11.574;2024-03-08T09:53:42;94945.16;;;6.16;100.00
27429;BME280;14881;48.092;11.574;2024-03-08T09:56:10;94946.63;;;6.53;100.00
27429;BME280;14881;48.092;11.574;2024-03-08T09:58:39;94944.00;;;6.87;100.00
27429;BME280;14881;48.092;11.574;2024-03-08T10:01:25;94953.97;;;6.91;100.00
27429;BME280;14881;48.092;11.574;2024-03-08T10:03:53;94938.72;;;7.06;100.00
27429;BME280;14881;48.092;11.574;2024-03-08T10:06:22;94943.19;;;7.25;100.00
27429;BME280;14881;48.092;11.574;2024-03-08T10:08:52;94940.34;;;7.41;100.00
27429;BME280;14881;48.092;11.574;2024-03-08T10:11:20;94935.94;;;7.79;100.00
27429;BME280;14881;48.092;11.574;2024-03-08T10:13:48;94929.84;;;7.92;100.00
27429;BME280;14881;48.092;11.574;2024-03-08T10:16:17;94929.09;;;8.10;100.00
27429;BME280;14881;48.092;11.574;2024-03-08T10:18:47;94919.59;;;8.36;100.00
27429;BME280;14881;48.092;11.574;2024-03-08T10:21:15;94919.72;;;8.69;100.00
27429;BME280;14881;48.092;11.574;2024-03-08T10:23:43;94910.13;;;9.14;100.00
27429;BME280;14881;48.092;11.574;2024-03-08T10:26:12;94906.59;;;9.32;100.00
27429;BME280;14881;48.092;11.574;2024-03-08T10:28:42;94906.63;;;9.46;100.00
27429;BME280;14881;48.092;11.574;2024-03-08T10:31:10;94904.88;;;9.69;100.00
27429;BME280;14881;48.092;11.574;2024-03-08T10:33:42;94902.69;;;10.12;100.00
27429;BME280;14881;48.092;11.574;2024-03-08T10:36:13;94897.63;;;9.64;100.00
27429;BME280;14881;48.092;11.574;2024-03-08T10:38:42;94895.06;;;10.14;100.00
27429;BME280;14881;48.092;11.574;2024-03-08T10:41:15;94891.75;;;10.31;100.00
27429;BME280;14881;48.092;11.574;2024-03-08T10:43:56;94894.13;;;10.60;100.00
27429;BME280;14881;48.092;11.574;2024-03-08T10:46:42;94891.13;;;10.61;100.00
27429;BME280;14881;48.092;11.574;2024-03-08T10:49:17;94888.75;;;10.82;100.00
27429;BME280;14881;48.092;11.574;2024-03-08T10:51:50;94880.56;;;10.73;100.00
27429;BME280;14881;48.092;11.574;2024-03-08T10:54:18;94877.97;;;11.13;100.00
27429;BME280;14881;48.092;11.574;2024-03-08T10:56:48;94875.72;;;11.06;100.00
27429;BME280;14881;48.092;11.574;2024-03-08T10:59:17;94876.56;;;11.38;100.00
27429;BME280;14881;48.092;11.574;2024-03-08T11:01:46;94874.41;;;11.26;100.00
27429;BME280;14881;48.092;11.574;2024-03-08T11:04:15;94873.22;;;11.19;100.00
27429;BME280;14881;48.092;11.574;2024-03-08T11:06:47;94871.75;;;10.90;100.00
27429;BME280;14881;48.092;11.574;2024-03-08T11:09:30;94865.19;;;11.13;100.00
27429;BME280;14881;48.092;11.574;2024-03-08T11:12:18;94862.41;;;12.11;100.00
27429;BME280;14881;48.092;11.574;2024-03-08T11:14:48;94854.44;;;12.24;100.00
27429;BME280;14881;48.092;11.574;2024-03-08T11:17:20;94844.66;;;12.23;100.00
27429;BME280;14881;48.092;11.574;2024-03-08T11:19:49;94847.53;;;12.17;100.00
27429;BME280;14881;48.092;11.574;2024-03-08T11:22:22;94839.91;;;12.37;100.00
27429;BME280;14881;48.092;11.574;2024-03-08T11:24:51;94830.81;;;12.67;100.00
27429;BME280;14881;48.092;11.574;2024-03-08T11:27:19;94831.28;;;13.04;100.00
27429;BME280;14881;48.092;11.574;2024-03-08T11:30:00;94831.78;;;13.06;100.00
27429;BME280;14881;48.092;11.574;2024-03-08T11:32:38;94832.75;;;13.01;100.00
27429;BME280;14881;48.092;11.574;2024-03-08T11:35:07;94818.97;;;13.32;100.00
27429;BME280;14881;48.092;11.574;2024-03-08T11:37:38;94820.97;;;13.52;100.00
27429;BME280;14881;48.092;11.574;2024-03-08T11:40:12;94815.91;;;13.25;100.00
27429;BME280;14881;48.092;11.574;2024-03-08T11:42:44;94823.28;;;12.81;100.00
27429;BME280;14881;48.092;11.574;2024-03-08T11:45:15;94818.47;;;12.87;100.00
27429;BME280;14881;48.092;11.574;2024-03-08T11:47:44;94811.09;;;13.13;100.00
27429;BME280;14881;48.092;11.574;2024-03-08T11:50:13;94816.25;;;13.32;100.00
27429;BME280;14881;48.092;11.574;2024-03-08T11:52:43;94806.13;;;13.33;100.00
27429;BME280;14881;48.092;11.574;2024-03-08T11:55:11;94812.84;;;13.35;100.00
27429;BME280;14881;48.092;11.574;2024-03-08T11:57:40;94801.31;;;13.12;100.00
27429;BME280;14881;48.092;11.574;2024-03-08T12:00:15;94799.66;;;13.46;100.00
27429;BME280;14881;48.092;11.574;2024-03-08T12:03:01;94796.25;;;13.66;100.00
27429;BME280;14881;48.092;11.574;2024-03-08T12:05:29;94791.16;;;13.85;100.00
27429;BME280;14881;48.092;11.574;2024-03-08T12:07:59;94786.94;;;13.58;100.00
27429;BME280;14881;48.092;11.574;2024-03-08T12:10:28;94787.00;;;13.41;100.00
27429;BME280;14881;48.092;11.574;2024-03-08T12:12:58;94780.69;;;13.58;100.00
27429;BME280;14881;48.092;11.574;2024-03-08T12:15:28;94780.56;;;13.46;100.00
27429;BME280;14881;48.092;11.574;2024-03-08T12:17:56;94778.50;;;13.81;100.00
27429;BME280;14881;48.092;11.574;2024-03-08T12:20:26;94768.47;;;13.55;100.00
27429;BME280;14881;48.092;11.574;2024-03-08T12:22:56;94773.16;;;13.93;100.00
27429;BME280;14881;48.092;11.574;2024-03-08T12:25:30;94768.19;;;13.48;100.00
27429;BME280;14881;48.092;11.574;2024-03-08T12:28:07;94761.00;;;13.44;100.00
27429;BME280;14881;48.092;11.574;2024-03-08T12:30:45;94766.03;;;13.16;100.00
27429;BME280;14881;48.092;11.574;2024-03-08T12:33:13;94755.56;;;13.27;100.00
27429;BME280;14881;48.092;11.574;2024-03-08T12:35:50;94751.34;;;13.46;100.00
27429;BME280;14881;48.092;11.574;2024-03-08T12:38:20;94749.69;;;13.54;100.00
27429;BME280;14881;48.092;11.574;2024-03-08T12:40:58;94741.47;;;14.01;100.00
27429;BME280;14881;48.092;11.574;2024-03-08T12:43:28;94737.59;;;14.31;100.00
27429;BME280;14881;48.092;11.574;2024-03-08T12:45:59;94735.00;;;14.35;100.00
27429;BME280;14881;48.092;11.574;2024-03-08T12:48:27;94737.47;;;13.98;100.00
27429;BME280;14881;48.092;11.574;2024-03-08T12:50:54;94729.63;;;13.88;100.00
27429;BME280;14881;48.092;11.574;2024-03-08T12:53:24;94717.00;;;14.04;100.00